createdAt,value
2023-01-08T00:02:05.165Z,83.76
2023-01-08T00:04:35.711Z,83.74
2023-01-08T00:07:05.484Z,83.70
2023-01-08T00:09:34.696Z,83.73
2023-01-08T00:12:04.980Z,83.61
2023-01-08T00:14:35.461Z,83.54
2023-01-08T00:17:05.785Z,83.24
2023-01-08T00:19:38.456Z,83.24
2023-01-08T00:22:09.288Z,83.12
2023-01-08T00:24:39.920Z,83.19
2023-01-08T00:27:10.631Z,83.18
2023-01-08T00:29:41.554Z,83.53
2023-01-08T00:32:12.447Z,83.30
2023-01-08T00:34:43.405Z,83.57
2023-01-08T00:37:13.673Z,83.45
2023-01-08T00:39:44.278Z,83.24
2023-01-08T00:42:15.022Z,83.02
2023-01-08T00:44:45.525Z,83.02
2023-01-08T00:47:16.216Z,82.98
2023-01-08T00:49:47.276Z,83.10
2023-01-08T00:52:17.970Z,82.88
2023-01-08T00:54:47.779Z,83.00
2023-01-08T00:57:17.941Z,83.07
2023-01-08T00:59:49.123Z,82.86
2023-01-08T01:02:20.176Z,83.20
2023-01-08T01:04:50.524Z,82.93
2023-01-08T01:07:22.264Z,82.86
2023-01-08T01:09:53.163Z,82.85
2023-01-08T01:12:23.920Z,82.96
2023-01-08T01:14:54.552Z,82.96
2023-01-08T01:17:25.411Z,82.72
2023-01-08T01:19:56.401Z,83.03
2023-01-08T01:22:27.113Z,83.27
2023-01-08T01:24:56.621Z,83.06
2023-01-08T01:27:27.423Z,82.73
2023-01-08T01:29:58.119Z,82.74
2023-01-08T01:32:28.071Z,82.94
2023-01-08T01:34:57.117Z,83.02
2023-01-08T01:37:26.256Z,83.33
2023-01-08T01:39:57.474Z,83.34
2023-01-08T01:42:45.874Z,83.29
2023-01-08T01:45:19.098Z,83.53
2023-01-08T01:48:03.728Z,83.44
2023-01-08T01:50:40.610Z,83.22
2023-01-08T01:53:20.001Z,83.48
2023-01-08T01:55:51.253Z,84.20
2023-01-08T01:58:29.917Z,84.01
2023-01-08T02:01:08.703Z,83.90
2023-01-08T02:03:41.523Z,84.13
2023-01-08T02:06:47.248Z,83.80
2023-01-08T02:09:44.638Z,84.44
2023-01-08T02:12:26.822Z,84.58
2023-01-08T02:15:22.592Z,84.39
2023-01-08T02:18:02.869Z,84.10
2023-01-08T02:20:40.228Z,84.25
2023-01-08T02:23:21.593Z,84.53
2023-01-08T02:26:13.229Z,84.73
2023-01-08T02:29:00.743Z,85.18
2023-01-08T02:31:32.847Z,85.32
2023-01-08T02:34:03.641Z,85.28
2023-01-08T02:36:41.638Z,85.61
2023-01-08T02:39:32.901Z,85.49
2023-01-08T02:42:22.380Z,85.72
2023-01-08T02:45:01.708Z,85.76
2023-01-08T02:47:45.625Z,85.51
2023-01-08T02:50:31.639Z,84.78
2023-01-08T02:53:19.574Z,84.57
2023-01-08T02:56:01.253Z,85.13
2023-01-08T02:58:34.487Z,84.60
2023-01-08T03:01:08.576Z,84.48
2023-01-08T03:03:40.696Z,85.01
2023-01-08T03:06:16.580Z,85.13
2023-01-08T03:08:50.311Z,85.19
2023-01-08T03:11:21.998Z,85.38
2023-01-08T03:14:05.457Z,85.40
2023-01-08T03:16:40.093Z,85.13
2023-01-08T03:19:20.022Z,85.19
2023-01-08T03:21:52.377Z,85.09
2023-01-08T03:24:28.099Z,84.77
2023-01-08T03:27:03.452Z,84.86
2023-01-08T03:29:35.110Z,84.89
2023-01-08T03:32:10.813Z,84.42
2023-01-08T03:34:44.662Z,84.48
2023-01-08T03:37:19.902Z,84.45
2023-01-08T03:40:08.650Z,84.39
2023-01-08T03:42:39.247Z,83.95
2023-01-08T03:45:12.386Z,83.73
2023-01-08T03:47:43.336Z,83.98
2023-01-08T03:50:21.615Z,84.06
2023-01-08T03:52:52.780Z,84.02
2023-01-08T03:55:23.297Z,84.24
2023-01-08T03:57:53.517Z,83.98
2023-01-08T04:00:24.062Z,84.00
2023-01-08T04:02:53.132Z,84.08
2023-01-08T04:05:24.134Z,83.78
2023-01-08T04:07:58.284Z,83.84
2023-01-08T04:10:28.833Z,83.65
2023-01-08T04:13:00.424Z,83.89
2023-01-08T04:15:31.333Z,83.82
2023-01-08T04:18:00.413Z,83.78
2023-01-08T04:20:30.815Z,83.26
2023-01-08T04:23:01.029Z,83.76
2023-01-08T04:25:31.688Z,83.31
2023-01-08T04:28:02.193Z,83.21
2023-01-08T04:30:33.344Z,83.25
2023-01-08T04:33:04.197Z,82.98
2023-01-08T04:35:35.214Z,83.57
2023-01-08T04:38:05.952Z,83.81
2023-01-08T04:40:35.777Z,83.97
2023-01-08T04:43:06.016Z,84.33
2023-01-08T04:45:36.324Z,84.27
2023-01-08T04:48:07.500Z,84.53
2023-01-08T04:50:38.005Z,84.19
2023-01-08T04:53:07.807Z,84.13
2023-01-08T04:55:39.726Z,84.02
2023-01-08T04:58:10.775Z,83.83
2023-01-08T05:00:41.700Z,84.03
2023-01-08T05:03:11.929Z,84.59
2023-01-08T05:05:42.136Z,84.59
2023-01-08T05:08:12.361Z,84.47
2023-01-08T05:10:41.344Z,84.82
2023-01-08T05:13:10.313Z,84.57
2023-01-08T05:15:40.484Z,85.20
2023-01-08T05:18:11.010Z,85.10
2023-01-08T05:20:43.641Z,84.68
2023-01-08T05:23:13.704Z,85.05
2023-01-08T05:25:43.989Z,85.23
2023-01-08T05:28:14.070Z,85.06
2023-01-08T05:30:43.521Z,85.11
2023-01-08T05:33:13.815Z,85.55
2023-01-08T05:35:44.436Z,85.13
2023-01-08T05:38:14.880Z,85.26
2023-01-08T05:40:45.032Z,85.14
2023-01-08T05:43:15.097Z,85.53
2023-01-08T05:45:44.020Z,85.68
2023-01-08T05:48:15.280Z,85.56
2023-01-08T05:50:45.585Z,85.60
2023-01-08T05:53:15.695Z,85.57
2023-01-08T05:55:45.582Z,85.82
2023-01-08T05:58:19.532Z,85.38
2023-01-08T06:00:49.331Z,84.96
2023-01-08T06:03:22.870Z,85.01
2023-01-08T06:05:53.306Z,85.07
2023-01-08T06:08:23.885Z,84.89
2023-01-08T06:10:54.671Z,84.82
2023-01-08T06:13:25.205Z,84.87
2023-01-08T06:15:55.416Z,85.18
2023-01-08T06:18:25.522Z,85.79
2023-01-08T06:20:56.491Z,84.99
2023-01-08T06:23:27.023Z,85.12
2023-01-08T06:25:59.354Z,85.58
2023-01-08T06:28:29.415Z,85.33
2023-01-08T06:31:00.832Z,85.32
2023-01-08T06:33:32.212Z,85.39
2023-01-08T06:36:06.258Z,85.62
2023-01-08T06:38:37.325Z,85.48
2023-01-08T06:41:10.531Z,85.12
2023-01-08T06:43:40.819Z,85.10
2023-01-08T06:46:10.985Z,84.83
2023-01-08T06:48:41.309Z,84.84
2023-01-08T06:51:11.831Z,84.93
2023-01-08T06:53:42.102Z,84.98
2023-01-08T06:56:12.628Z,85.11
2023-01-08T06:58:41.736Z,85.52
2023-01-08T07:01:16.943Z,85.79
2023-01-08T07:03:47.211Z,85.89
2023-01-08T07:06:19.435Z,85.51
2023-01-08T07:08:49.665Z,85.82
2023-01-08T07:11:19.837Z,85.87
2023-01-08T07:13:50.002Z,86.14
2023-01-08T07:16:20.247Z,85.58
2023-01-08T07:18:50.487Z,85.58
2023-01-08T07:21:21.768Z,85.44
2023-01-08T07:23:51.987Z,85.42
2023-01-08T07:26:22.136Z,85.53
2023-01-08T07:28:52.358Z,85.03
2023-01-08T07:31:22.620Z,84.77
2023-01-08T07:33:52.292Z,84.81
2023-01-08T07:36:23.723Z,85.00
2023-01-08T07:38:53.589Z,84.69
2023-01-08T07:41:23.807Z,84.84
2023-01-08T07:43:53.555Z,84.88
2023-01-08T07:46:23.891Z,84.73
2023-01-08T07:48:54.424Z,85.02
2023-01-08T07:51:24.613Z,85.16
2023-01-08T07:53:56.812Z,84.96
2023-01-08T07:56:26.943Z,84.86
2023-01-08T07:58:57.194Z,84.82
2023-01-08T08:01:27.637Z,85.03
2023-01-08T08:03:57.860Z,84.89
2023-01-08T08:06:28.390Z,85.37
2023-01-08T08:09:00.568Z,85.29
2023-01-08T08:11:30.704Z,84.89
2023-01-08T08:14:00.917Z,85.15
2023-01-08T08:16:31.277Z,85.57
2023-01-08T08:19:01.549Z,85.24
2023-01-08T08:21:31.446Z,85.43
2023-01-08T08:24:01.859Z,85.41
2023-01-08T08:26:32.410Z,85.83
2023-01-08T08:29:01.581Z,85.61
2023-01-08T08:31:31.859Z,85.51
2023-01-08T08:34:01.623Z,85.33
2023-01-08T08:36:31.858Z,85.66
2023-01-08T08:39:03.424Z,85.77
2023-01-08T08:41:33.603Z,85.57
2023-01-08T08:44:04.106Z,85.22
2023-01-08T08:46:34.408Z,85.21
2023-01-08T08:49:04.664Z,85.15
2023-01-08T08:51:34.764Z,84.91
2023-01-08T08:54:04.980Z,84.95
2023-01-08T08:56:34.674Z,85.34
2023-01-08T08:59:04.337Z,85.16
2023-01-08T09:01:34.961Z,85.21
2023-01-08T09:04:05.217Z,84.86
2023-01-08T09:06:34.187Z,84.79
2023-01-08T09:09:05.725Z,84.45
2023-01-08T09:11:36.062Z,84.86
2023-01-08T09:14:06.162Z,85.03
2023-01-08T09:16:37.548Z,84.29
2023-01-08T09:19:08.039Z,84.74
2023-01-08T09:21:38.442Z,85.39
2023-01-08T09:24:10.843Z,84.56
2023-01-08T09:26:41.035Z,84.47
2023-01-08T09:29:11.155Z,84.80
2023-01-08T09:31:41.736Z,84.65
2023-01-08T09:34:12.171Z,85.19
2023-01-08T09:36:42.719Z,84.96
2023-01-08T09:39:13.408Z,84.88
2023-01-08T09:41:47.001Z,84.82
2023-01-08T09:44:23.503Z,84.74
2023-01-08T09:46:56.632Z,84.94
2023-01-08T09:49:43.101Z,85.30
2023-01-08T09:52:15.739Z,84.76
2023-01-08T09:54:46.292Z,84.90
2023-01-08T09:57:22.086Z,84.56
2023-01-08T09:59:52.204Z,84.86
2023-01-08T10:02:25.886Z,84.36
2023-01-08T10:05:01.320Z,84.23
2023-01-08T10:07:31.928Z,84.81
2023-01-08T10:10:02.289Z,84.39
2023-01-08T10:12:34.291Z,84.39
2023-01-08T10:15:08.797Z,83.88
2023-01-08T10:17:40.358Z,83.90
2023-01-08T10:20:19.909Z,84.40
2023-01-08T10:22:55.123Z,84.19
2023-01-08T10:25:27.928Z,84.09
2023-01-08T10:28:02.961Z,84.36
2023-01-08T10:30:42.894Z,84.35
2023-01-08T10:33:20.851Z,84.33
2023-01-08T10:36:02.441Z,84.44
2023-01-08T10:38:35.285Z,84.60
2023-01-08T10:41:11.715Z,84.21
2023-01-08T10:43:53.207Z,84.49
2023-01-08T10:46:29.839Z,84.40
2023-01-08T10:49:02.967Z,84.86
2023-01-08T10:51:33.694Z,84.94
2023-01-08T10:54:24.663Z,85.89
2023-01-08T10:56:55.284Z,85.22
2023-01-08T10:59:26.532Z,85.26
2023-01-08T11:01:58.936Z,84.89
2023-01-08T11:04:36.936Z,84.41
2023-01-08T11:07:08.287Z,84.31
2023-01-08T11:09:48.488Z,84.22
2023-01-08T11:12:41.253Z,83.99
2023-01-08T11:15:16.010Z,83.80
2023-01-08T11:17:46.890Z,83.86
2023-01-08T11:20:29.755Z,83.67
2023-01-08T11:23:19.415Z,83.88
2023-01-08T11:25:57.861Z,83.74
2023-01-08T11:28:57.241Z,83.56
2023-01-08T11:31:44.411Z,83.33
2023-01-08T11:34:24.344Z,83.62
2023-01-08T11:37:21.618Z,83.43
2023-01-08T11:39:53.770Z,83.79
2023-01-08T11:43:03.268Z,83.98
2023-01-08T11:45:47.434Z,83.87
2023-01-08T11:48:51.771Z,83.72
2023-01-08T11:51:50.291Z,83.69
2023-01-08T11:54:44.962Z,83.50
2023-01-08T11:57:30.283Z,83.67
2023-01-08T12:00:09.607Z,83.67
2023-01-08T12:02:58.449Z,83.75
2023-01-08T12:05:32.650Z,83.78
2023-01-08T12:08:08.609Z,83.45
2023-01-08T12:11:35.972Z,83.80
2023-01-08T12:14:11.231Z,83.76
2023-01-08T12:17:05.586Z,83.63
2023-01-08T12:20:07.386Z,83.28
2023-01-08T12:22:54.009Z,83.38
2023-01-08T12:25:33.354Z,83.68
2023-01-08T12:28:09.396Z,83.79
2023-01-08T12:30:42.793Z,83.41
2023-01-08T12:33:34.897Z,83.21
2023-01-08T12:36:11.377Z,82.77
2023-01-08T12:38:45.404Z,81.81
2023-01-08T12:41:19.294Z,82.48
2023-01-08T12:44:03.080Z,82.86
2023-01-08T12:46:39.111Z,82.95
2023-01-08T12:49:12.331Z,83.07
2023-01-08T12:51:56.895Z,83.05
2023-01-08T12:54:36.283Z,83.11
2023-01-08T12:57:18.430Z,82.52
2023-01-08T12:59:55.320Z,82.63
2023-01-08T13:02:53.125Z,82.49
2023-01-08T13:05:22.309Z,82.61
2023-01-08T13:07:56.979Z,82.75
2023-01-08T13:10:33.719Z,83.05
2023-01-08T13:13:06.207Z,83.41
2023-01-08T13:15:36.927Z,83.09
2023-01-08T13:18:24.963Z,83.16
2023-01-08T13:21:00.665Z,83.21
2023-01-08T13:23:35.452Z,83.23
2023-01-08T13:26:07.411Z,83.03
2023-01-08T13:28:38.101Z,83.13
2023-01-08T13:31:24.963Z,82.41
2023-01-08T13:33:56.206Z,82.76
2023-01-08T13:36:29.230Z,82.62
2023-01-08T13:39:06.377Z,82.34
2023-01-08T13:42:20.904Z,82.33
2023-01-08T13:44:57.784Z,82.19
2023-01-08T13:47:38.883Z,82.29
2023-01-08T13:50:22.227Z,82.40
2023-01-08T13:53:00.100Z,82.06
2023-01-08T13:55:35.448Z,82.34
2023-01-08T13:58:21.946Z,82.33
2023-01-08T14:00:56.186Z,82.35
2023-01-08T14:03:29.092Z,82.47
2023-01-08T14:06:11.963Z,82.53
2023-01-08T14:08:52.758Z,82.58
2023-01-08T14:11:42.412Z,82.30
2023-01-08T14:14:15.364Z,82.22
2023-01-08T14:16:47.084Z,82.08
2023-01-08T14:19:23.237Z,81.80
2023-01-08T14:22:02.272Z,81.93
2023-01-08T14:24:32.683Z,81.67
2023-01-08T14:27:01.727Z,81.51
2023-01-08T14:29:35.153Z,81.75
2023-01-08T14:32:15.601Z,82.12
2023-01-08T14:34:45.667Z,82.20
2023-01-08T14:37:16.927Z,82.09
2023-01-08T14:39:55.203Z,82.25
2023-01-08T14:42:47.999Z,82.39
2023-01-08T14:45:27.961Z,82.71
2023-01-08T14:48:19.159Z,82.59
2023-01-08T14:51:04.556Z,82.73
2023-01-08T14:53:50.758Z,82.91
2023-01-08T14:56:31.579Z,83.00
2023-01-08T14:59:08.190Z,83.11
2023-01-08T15:01:39.448Z,83.20
2023-01-08T15:04:22.566Z,83.30
2023-01-08T15:07:05.779Z,83.28
2023-01-08T15:09:37.118Z,83.25
2023-01-08T15:12:23.134Z,83.52
2023-01-08T15:14:55.639Z,83.58
2023-01-08T15:17:29.617Z,83.67
2023-01-08T15:20:02.073Z,83.86
2023-01-08T15:22:33.132Z,84.18
2023-01-08T15:25:07.528Z,84.29
2023-01-08T15:27:40.247Z,84.11
2023-01-08T15:30:27.545Z,84.30
2023-01-08T15:33:08.235Z,84.27
2023-01-08T15:35:38.884Z,84.50
2023-01-08T15:38:09.495Z,84.56
2023-01-08T15:40:38.720Z,84.64
2023-01-08T15:43:15.993Z,84.95
2023-01-08T15:45:48.082Z,84.92
2023-01-08T15:48:17.920Z,85.04
2023-01-08T15:50:47.597Z,84.92
2023-01-08T15:53:19.481Z,85.01
2023-01-08T15:55:50.268Z,84.87
2023-01-08T15:58:20.177Z,85.01
2023-01-08T16:00:49.158Z,85.19
2023-01-08T16:03:19.387Z,85.27
2023-01-08T16:05:49.596Z,85.33
2023-01-08T16:10:26.291Z,85.40
2023-01-08T16:14:19.741Z,85.56
2023-01-08T16:37:49.287Z,85.99
2023-01-08T16:41:41.808Z,86.11
2023-01-08T16:45:34.739Z,85.94
2023-01-08T17:01:13.115Z,86.42
2023-01-08T17:04:58.366Z,86.40
2023-01-08T17:08:49.871Z,86.45
2023-01-08T17:24:40.279Z,86.24
2023-01-08T17:28:26.360Z,86.19
2023-01-08T17:48:12.684Z,86.23
2023-01-08T17:51:44.112Z,86.25
2023-01-08T17:55:37.175Z,86.33
2023-01-08T17:59:30.516Z,86.28
2023-01-08T18:03:24.738Z,86.22
2023-01-08T18:26:31.965Z,85.81
2023-01-08T18:30:26.976Z,86.00
2023-01-08T18:34:20.483Z,85.68
2023-01-08T18:49:57.892Z,85.12
2023-01-08T18:53:33.194Z,84.76
2023-01-08T18:57:25.678Z,84.08
2023-01-08T19:01:17.856Z,84.54
2023-01-08T19:17:00.977Z,83.95
2023-01-08T19:20:53.379Z,83.57
2023-01-08T19:24:47.157Z,83.75
2023-01-08T19:28:33.200Z,83.35
2023-01-08T19:40:46.952Z,83.07
2023-01-08T19:44:35.577Z,83.17
2023-01-08T19:48:26.660Z,82.76
2023-01-08T19:52:19.181Z,82.79
2023-01-08T20:04:14.192Z,82.73
2023-01-08T20:07:53.443Z,82.47
2023-01-08T20:11:48.800Z,82.47
2023-01-08T20:15:41.544Z,82.14
2023-01-08T20:19:19.063Z,82.45
2023-01-08T20:38:53.945Z,82.13
2023-01-08T20:42:47.745Z,81.97
2023-01-08T20:46:40.225Z,82.23
2023-01-08T21:10:10.548Z,81.76
2023-01-08T21:14:05.157Z,81.89
2023-01-08T21:17:58.131Z,82.15
2023-01-08T21:21:53.005Z,81.71
2023-01-08T21:41:17.765Z,81.67
2023-01-08T21:45:09.065Z,81.66
2023-01-08T21:49:01.258Z,81.69
2023-01-08T21:52:52.254Z,81.94
2023-01-08T21:56:43.539Z,82.27
2023-01-08T22:16:23.609Z,83.23
2023-01-08T22:20:17.137Z,83.32
2023-01-08T22:24:09.613Z,83.05
2023-01-08T22:28:01.948Z,83.03
2023-01-08T22:43:46.443Z,82.71
2023-01-08T22:47:39.687Z,82.69
2023-01-08T22:51:31.357Z,82.87
2023-01-08T22:55:18.170Z,82.76
2023-01-08T23:14:20.735Z,82.54
2023-01-08T23:18:12.768Z,82.47
2023-01-08T23:22:06.179Z,82.29
2023-01-08T23:25:48.807Z,82.19
2023-01-08T23:52:55.985Z,81.77
2023-01-08T23:56:31.947Z,82.14
